This is the latest recevied weather packets stored in our database for station/object G8PZT. If no packets are shown the sender has not sent any weather packets the latest 10 day(s).
| Time | Temp. | Humidity | Pressure | Rain* | Wind** | Luminosity | Snow |
|---|---|---|---|---|---|---|---|
| 1777744802 | 12.78° C | 57% | - | 4.06 mm | - | - | - |
| 1777744316 | 13.33° C | 57% | - | 4.06 mm | - | - | - |
| 1777743716 | 13.33° C | 50% | - | 3.05 mm | - | - | - |
| 1777743602 | 13.33° C | 50% | - | 3.05 mm | - | - | - |
| 1777743115 | 13.89° C | 46% | - | 2.03 mm | - | - | - |
| 1777742515 | 14.44° C | 41% | - | 0 mm | - | - | - |
| 1777742402 | 14.44° C | 41% | - | 0 mm | - | - | - |
| 1777741315 | 16.11° C | 30% | - | 0 mm | - | - | - |
| 1777741202 | 16.11° C | 30% | - | 0 mm | - | - | - |
| 1777740716 | 16.67° C | 26% | - | 0 mm | - | - | - |
| 1777740116 | 16.67° C | 26% | - | 0 mm | - | - | - |
| 1777740002 | 16.67° C | 26% | - | 0 mm | - | - | - |
| 1777739516 | 16.67° C | 26% | - | 0 mm | - | - | - |
| 1777738916 | 16.67° C | 26% | - | 0 mm | - | - | - |
| 1777738316 | 17.22° C | 23% | - | 0 mm | - | - | - |
| 1777737716 | 17.78° C | 23% | - | 0 mm | - | - | - |
| 1777736516 | 17.78° C | 23% | - | 0 mm | - | - | - |
| 1777735916 | 17.78° C | 23% | - | 0 mm | - | - | - |
| 1777735315 | 17.78° C | 22% | - | 0 mm | - | - | - |
| 1777735202 | 17.78° C | 22% | - | 0 mm | - | - | - |
| 1777734715 | 17.78° C | 22% | - | 0 mm | - | - | - |
| 1777734115 | 17.78° C | 22% | - | 0 mm | - | - | - |
| 1777733515 | 17.78° C | 22% | - | 0 mm | - | - | - |
| 1777732916 | 17.78° C | 22% | - | 0 mm | - | - | - |
| 1777732802 | 18.33° C | 22% | - | 0 mm | - | - | - |
* Rain latest hour (hover to see other rain measurements)
** Current wind speed in m/s (hover to see current wind gust speed)